Time;durP1;ratioP1;P1;durP2;ratioP2;P2;SDS_P1;SDS_P2;PMS_P1;PMS_P2;Temp;Humidity;BMP_temperature;BMP_pressure;BME280_temperature;BME280_humidity;BME280_pressure;Samples;Min_cycle;Max_cycle;Signal;HPM_P1;HPM_P2
2023/05/22 05:01:50;;;;;;;;;4.00;2.00;;;;;18.41;56.03;42334.66;6327673;22;47056;-84
2023/05/22 05:04:16;;;;;;;;;3.00;3.00;;;;;18.41;56.45;41973.34;6382043;22;45030;-85
2023/05/22 05:06:42;;;;;;;;;3.00;3.00;;;;;18.42;56.57;41750.34;6383765;22;44949;-85
2023/05/22 05:09:07;;;;;;;;;2.00;2.00;;;;;18.41;56.61;41457.47;6384802;22;45008;-85
2023/05/22 05:11:33;;;;;;;;;3.00;3.00;;;;;18.28;56.12;41360.56;6381602;22;45459;-85
2023/05/22 05:13:58;;;;;;;;;4.33;3.33;;;;;18.42;56.43;40793.50;6380289;22;45084;-85
2023/05/22 05:16:25;;;;;;;;;2.33;2.33;;;;;18.38;56.47;40657.69;6384067;22;45436;-85
2023/05/22 05:18:51;;;;;;;;;2.67;2.67;;;;;18.21;56.62;40374.72;6384348;22;45088;-84
2023/05/22 05:21:17;;;;;;;;;2.00;2.00;;;;;18.38;56.65;40346.31;6381507;22;45138;-85
2023/05/22 05:23:42;;;;;;;;;5.33;4.00;;;;;18.40;56.30;40061.03;6384291;22;44990;-85
2023/05/22 05:26:08;;;;;;;;;2.67;2.67;;;;;18.22;56.44;39583.59;6383748;22;44997;-84
2023/05/22 05:28:33;;;;;;;;;4.00;4.00;;;;;18.27;56.43;39331.69;6384467;22;45013;-85
2023/05/22 05:30:59;;;;;;;;;3.00;2.00;;;;;18.41;56.74;39174.03;6383865;22;45401;-85
2023/05/22 05:33:24;;;;;;;;;3.00;3.00;;;;;18.41;56.50;39035.84;6383497;22;44991;-85
2023/05/22 05:35:51;;;;;;;;;3.00;1.67;;;;;18.31;56.78;38324.91;6380347;22;45398;-84
2023/05/22 05:38:17;;;;;;;;;2.00;2.00;;;;;18.44;57.00;37982.72;6384003;22;45441;-83
2023/05/22 05:40:43;;;;;;;;;7.00;6.00;;;;;18.34;56.42;37825.22;6383515;22;46216;-85
2023/05/22 05:43:09;;;;;;;;;5.67;3.67;;;;;18.12;56.69;37396.50;6384053;22;45008;-89
2023/05/22 05:45:34;;;;;;;;;3.00;3.00;;;;;18.46;56.70;37476.66;6355275;22;45016;-85
2023/05/22 05:48:00;;;;;;;;;4.67;3.00;;;;;17.92;56.59;36950.53;6375343;22;45276;-94
2023/05/22 05:50:25;;;;;;;;;5.00;3.00;;;;;18.46;56.94;36363.72;6353337;22;46997;-93
2023/05/22 05:52:51;;;;;;;;;5.00;2.33;;;;;17.08;56.74;36247.44;6356281;22;45277;-95
2023/05/22 05:55:17;;;;;;;;;4.00;4.00;;;;;17.65;57.13;35829.63;6352523;22;45194;-91
2023/05/22 05:57:42;;;;;;;;;2.00;2.00;;;;;17.78;57.15;35426.88;6354937;22;45395;-96
2023/05/22 06:00:10;;;;;;;;;2.00;2.00;;;;;17.94;56.89;35603.88;6381459;22;45286;-96
2023/05/22 06:02:38;;;;;;;;;4.00;3.00;;;;;17.24;57.05;35361.41;6364744;22;45686;-96
2023/05/22 06:05:04;;;;;;;;;2.00;2.00;;;;;16.93;56.78;35577.78;6345604;22;45326;-94
2023/05/22 06:07:30;;;;;;;;;3.33;2.00;;;;;17.57;57.23;34946.91;6345604;22;45469;-93
2023/05/22 06:09:56;;;;;;;;;1.33;1.33;;;;;17.00;57.04;33906.06;6374297;22;46477;-93
2023/05/22 06:12:22;;;;;;;;;2.33;2.33;;;;;17.66;57.35;31775.09;6374422;22;45293;-94
2023/05/22 06:14:47;;;;;;;;;2.00;2.00;;;;;17.14;58.02;30144.31;6353133;22;45209;-95
2023/05/22 06:17:13;;;;;;;;;2.67;2.67;;;;;17.94;57.73;29503.94;6342775;22;45554;-92
2023/05/22 06:19:38;;;;;;;;;2.33;2.33;;;;;17.52;57.60;28836.28;6369769;22;46456;-91
2023/05/22 06:22:04;;;;;;;;;2.00;2.00;;;;;18.51;57.46;29533.78;6342090;22;45603;-95
2023/05/22 06:24:31;;;;;;;;;2.00;2.00;;;;;18.13;57.47;29187.97;6339627;22;45331;-87
2023/05/22 06:26:56;;;;;;;;;2.67;2.67;;;;;18.52;57.67;29195.22;6342134;22;45484;-89
2023/05/22 06:29:25;;;;;;;;;2.67;2.67;;;;;17.78;57.87;29156.34;6380373;22;45130;-90
2023/05/22 06:31:51;;;;;;;;;2.00;2.00;;;;;18.18;57.29;29222.16;6357406;22;44929;-91
2023/05/22 06:34:16;;;;;;;;;4.33;3.00;;;;;18.19;57.44;28838.50;6384257;22;44995;-91
2023/05/22 06:36:41;;;;;;;;;2.00;2.00;;;;;18.58;57.25;28519.19;6386198;22;45179;-94
2023/05/22 06:39:07;;;;;;;;;3.67;3.67;;;;;18.43;57.38;28172.41;6357939;22;47582;-92
2023/05/22 06:41:34;;;;;;;;;2.00;2.00;;;;;18.45;57.11;27834.22;6383976;22;45025;-92
2023/05/22 06:44:01;;;;;;;;;3.33;2.33;;;;;18.59;57.49;27841.38;6387708;22;44988;-94
2023/05/22 06:46:27;;;;;;;;;2.00;2.00;;;;;18.50;57.58;27158.41;6386420;22;44857;-88
2023/05/22 06:48:53;;;;;;;;;3.00;3.00;;;;;18.76;57.35;26831.84;6384631;22;46053;-90
2023/05/22 06:51:18;;;;;;;;;2.67;2.67;;;;;18.79;57.57;26494.06;6385035;22;45113;-90
2023/05/22 06:53:44;;;;;;;;;3.00;2.00;;;;;18.61;57.61;26485.50;6385790;22;45071;-94
2023/05/22 06:56:09;;;;;;;;;2.00;2.00;;;;;18.62;57.64;26486.00;6359568;22;45149;-95
2023/05/22 06:58:34;;;;;;;;;2.67;2.67;;;;;18.66;57.63;26148.53;6358196;22;47012;-95
2023/05/22 07:01:00;;;;;;;;;3.00;3.00;;;;;18.73;57.56;25812.97;6357532;22;44934;-94
2023/05/22 07:03:26;;;;;;;;;4.00;3.00;;;;;18.98;57.52;25824.66;6358512;22;45158;-96
2023/05/22 07:05:52;;;;;;;;;2.67;2.67;;;;;18.70;57.01;25811.28;6386745;22;44958;-94
2023/05/22 07:08:17;;;;;;;;;4.00;2.00;;;;;19.05;57.07;25488.41;6386305;22;46104;-92
2023/05/22 07:10:42;;;;;;;;;2.00;2.00;;;;;18.82;57.03;25138.41;6384355;22;44906;-95
2023/05/22 07:13:07;;;;;;;;;4.00;2.67;;;;;18.94;57.02;25483.47;6385006;22;44931;-96
2023/05/22 07:15:33;;;;;;;;;2.67;2.33;;;;;18.87;57.41;25140.72;6386128;22;45089;-92
2023/05/22 07:17:58;;;;;;;;;2.00;2.00;;;;;18.81;57.43;24120.84;6358018;22;47397;-94
2023/05/22 07:20:25;;;;;;;;;1.33;1.33;;;;;19.03;57.58;24130.50;6358543;22;44846;-95
2023/05/22 07:22:50;;;;;;;;;3.33;2.00;;;;;19.00;57.08;23789.78;6387324;22;44877;-90
2023/05/22 07:25:16;;;;;;;;;3.33;3.00;;;;;19.16;57.45;23457.88;6386221;22;44831;-93
2023/05/22 07:27:41;;;;;;;;;2.33;2.00;;;;;19.30;57.55;23463.56;6386460;22;46194;-90
2023/05/22 07:30:14;;;;;;;;;2.00;2.00;;;;;19.16;57.04;22779.31;6357133;22;44937;-93
2023/05/22 07:32:40;;;;;;;;;3.00;3.00;;;;;19.38;57.36;22449.25;6386382;22;44792;-94
2023/05/22 07:35:06;;;;;;;;;4.00;3.00;;;;;19.09;57.46;22098.41;6358422;22;45050;-93
2023/05/22 07:37:32;;;;;;;;;2.67;2.00;;;;;19.14;57.21;22100.28;6385582;22;45947;-93
2023/05/22 07:39:57;;;;;;;;;3.00;3.00;;;;;19.43;57.22;21433.53;6385340;22;44829;-94
2023/05/22 07:42:24;;;;;;;;;4.00;2.00;;;;;19.45;57.31;21434.34;6385380;22;44820;-94
2023/05/22 07:44:50;;;;;;;;;3.33;3.00;;;;;19.31;57.40;21089.78;6385584;22;44939;-96
2023/05/22 07:47:18;;;;;;;;;1.00;1.00;;;;;19.47;57.24;20756.84;6384442;22;46342;-94
2023/05/22 07:49:43;;;;;;;;;2.00;2.00;;;;;19.62;57.14;20423.56;6384611;22;44898;-94
2023/05/22 07:52:09;;;;;;;;;3.00;3.00;;;;;19.83;57.00;19753.00;6357797;22;44913;-92
2023/05/22 07:54:34;;;;;;;;;3.67;2.00;;;;;19.68;57.28;19747.31;6385465;22;45010;-93
2023/05/22 07:57:02;;;;;;;;;2.00;2.00;;;;;19.76;57.69;19072.19;6385536;22;45028;-93
2023/05/22 07:59:28;;;;;;;;;1.00;1.00;;;;;19.75;56.80;19071.81;6387716;22;44828;-94
2023/05/22 08:01:53;;;;;;;;;4.33;2.00;;;;;19.96;57.25;18739.91;6357751;22;52758;-94
2023/05/22 08:04:19;;;;;;;;;2.00;2.00;;;;;20.06;56.82;18404.28;6387157;22;44805;-96
2023/05/22 08:06:44;;;;;;;;;5.67;2.33;;;;;19.98;56.65;18401.59;6359002;22;44988;-96
2023/05/22 08:09:10;;;;;;;;;2.00;2.00;;;;;20.23;57.14;18410.31;6386870;22;44816;-96
2023/05/22 08:11:38;;;;;;;;;3.00;3.00;;;;;20.14;57.17;18067.66;6360271;22;44942;-96
2023/05/22 08:14:04;;;;;;;;;2.33;2.33;;;;;20.32;56.91;17734.44;6388255;22;44884;-96
2023/05/22 08:16:30;;;;;;;;;3.00;3.00;;;;;20.37;57.18;17736.34;6359897;22;47465;-95
2023/05/22 08:18:57;;;;;;;;;2.33;2.00;;;;;20.20;57.23;17730.66;6389260;22;44811;-96
2023/05/22 08:21:23;;;;;;;;;3.00;3.00;;;;;20.44;57.03;17399.38;6388559;22;44888;-96
2023/05/22 08:23:48;;;;;;;;;2.00;2.00;;;;;20.49;56.62;17400.75;6389874;22;45013;-96
2023/05/22 08:26:14;;;;;;;;;3.00;2.00;;;;;20.53;56.95;17402.25;6389483;22;46083;-96
2023/05/22 08:28:43;;;;;;;;;2.67;2.67;;;;;20.41;56.59;17059.03;6389256;22;44925;-96
2023/05/22 08:31:10;;;;;;;;;2.00;2.00;;;;;20.62;56.96;17065.69;6389550;22;44819;-96
2023/05/22 08:33:35;;;;;;;;;2.00;2.00;;;;;20.46;56.89;17060.53;6362606;22;45031;-96
2023/05/22 08:36:01;;;;;;;;;5.00;4.00;;;;;20.73;56.09;16729.72;6362496;22;46913;-96
2023/05/22 08:38:26;;;;;;;;;5.67;5.67;;;;;20.78;56.84;16731.38;6389882;22;44742;-96
2023/05/22 08:40:54;;;;;;;;;5.00;4.00;;;;;20.83;56.47;16393.50;6388023;22;44815;-96
2023/05/22 08:43:20;;;;;;;;;5.00;4.00;;;;;20.80;56.96;16053.25;6388345;22;45034;-95
2023/05/22 08:45:54;;;;;;;;;3.33;3.33;;;;;20.90;56.33;15716.78;6389153;22;45946;-96
2023/05/22 08:48:22;;;;;;;;;3.33;3.33;;;;;20.95;56.92;15378.88;6389899;22;44905;-96
2023/05/22 08:50:56;;;;;;;;;2.33;2.33;;;;;21.05;56.34;15381.94;6389899;22;45012;-96
2023/05/22 08:53:24;;;;;;;;;4.67;4.00;;;;;21.06;56.22;15042.72;6390263;22;44938;-96
2023/05/22 08:55:53;;;;;;;;;4.00;3.33;;;;;21.24;56.91;14708.25;6388445;22;46250;-96
2023/05/22 08:58:20;;;;;;;;;6.33;4.00;;;;;21.33;56.56;14371.31;6390344;22;44865;-96
2023/05/22 09:00:46;;;;;;;;;3.67;3.67;;;;;21.13;56.41;14026.22;6390530;22;44854;-96
2023/05/22 09:03:13;;;;;;;;;3.00;3.00;;;;;21.53;56.30;13697.53;6390214;22;44834;-96
2023/05/22 09:05:44;;;;;;;;;2.33;2.33;;;;;21.19;56.34;13348.91;6390933;22;46211;-96
2023/05/22 09:08:15;;;;;;;;;2.33;2.33;;;;;21.73;56.40;13023.56;6370197;22;44757;-96
2023/05/22 09:10:40;;;;;;;;;5.00;4.00;;;;;21.70;56.51;12683.38;6391490;22;44820;-96
2023/05/22 09:13:08;;;;;;;;;3.00;3.00;;;;;21.97;56.01;12010.56;6394763;22;45010;-96
2023/05/22 09:15:36;;;;;;;;;2.67;2.67;;;;;22.24;56.25;10997.78;6393368;22;45652;-96
2023/05/22 09:18:10;;;;;;;;;8.00;5.00;;;;;22.28;55.94;9979.47;6396618;22;44604;-96
2023/05/22 09:20:45;;;;;;;;;3.00;3.00;;;;;22.19;55.86;9298.38;6394928;22;44655;-96
2023/05/22 09:23:22;;;;;;;;;4.67;4.67;;;;;22.33;55.57;8621.88;6397724;22;44992;-96
2023/05/22 09:25:48;;;;;;;;;3.00;3.00;;;;;23.02;55.92;7955.19;6392363;22;46181;-96
2023/05/22 09:28:46;;;;;;;;;3.00;3.00;;;;;22.57;55.48;7607.41;6368898;22;44764;-96
2023/05/22 09:31:50;;;;;;;;;3.00;3.00;;;;;23.85;55.48;7289.53;6392837;22;44698;-96
2023/05/22 09:34:40;;;;;;;;;4.00;4.00;;;;;24.16;54.45;6954.38;6385191;22;44718;-96
2023/05/22 09:37:38;;;;;;;;;2.00;2.00;;;;;23.30;54.42;7620.13;6395287;22;45164;-96
2023/05/22 09:40:26;;;;;;;;;3.00;2.33;;;;;23.25;54.35;8639.53;6393869;22;44879;-96
2023/05/22 09:42:53;;;;;;;;;3.00;3.00;;;;;23.86;54.56;9672.56;6382923;22;44667;-96
2023/05/22 09:45:25;;;;;;;;;4.67;4.33;;;;;23.51;53.86;10346.06;6386680;22;44779;-96
2023/05/22 09:47:50;;;;;;;;;3.67;2.00;;;;;23.58;53.80;10688.06;6386403;22;45512;-94
2023/05/22 09:50:17;;;;;;;;;2.00;2.00;;;;;23.20;54.33;11019.72;6358143;22;44971;-94
2023/05/22 09:52:44;;;;;;;;;3.00;3.00;;;;;23.47;53.84;10685.66;6385706;22;44803;-92
2023/05/22 09:55:12;;;;;;;;;2.00;2.00;;;;;24.11;54.16;11040.69;6385901;22;44803;-93
2023/05/22 09:57:42;;;;;;;;;4.67;3.67;;;;;24.22;53.63;11043.28;6386146;22;46234;-96
2023/05/22 10:00:11;;;;;;;;;4.00;4.00;;;;;24.20;53.83;10701.97;6386128;22;44850;-94
2023/05/22 10:02:40;;;;;;;;;3.67;3.67;;;;;24.72;53.08;10713.72;6385758;22;44851;-92
2023/05/22 10:05:08;;;;;;;;;3.33;3.33;;;;;25.13;52.91;9699.16;6386034;22;44795;-94
2023/05/22 10:07:40;;;;;;;;;4.67;4.67;;;;;25.32;52.51;9020.44;6385999;22;46162;-93
2023/05/22 10:10:11;;;;;;;;;5.67;4.00;;;;;25.92;51.94;9374.03;6358079;22;44827;-93
2023/05/22 10:12:49;;;;;;;;;5.00;4.33;;;;;26.35;51.52;10408.47;6385997;22;44949;-93
2023/05/22 10:15:16;;;;;;;;;3.00;3.00;;;;;26.45;51.12;9726.81;6386329;22;44873;-95
2023/05/22 10:17:43;;;;;;;;;4.33;4.33;;;;;27.09;50.75;9397.97;6357892;22;47244;-90
2023/05/22 10:20:09;;;;;;;;;5.67;4.00;;;;;27.21;50.48;9742.63;6383816;22;44894;-90
2023/05/22 10:22:38;;;;;;;;;3.33;3.33;;;;;27.49;50.19;10776.16;6385773;22;44738;-93
2023/05/22 10:25:04;;;;;;;;;5.00;5.00;;;;;27.59;49.11;13177.69;6384174;22;45085;-95
2023/05/22 10:27:38;;;;;;;;;5.33;5.33;;;;;27.82;48.30;16271.66;6387703;22;45845;-93
2023/05/22 10:30:33;;;;;;;;;5.33;5.33;;;;;28.35;48.17;15601.50;6385743;22;45204;-94
2023/05/22 10:33:20;;;;;;;;;3.67;3.67;;;;;28.84;48.27;15616.25;6385779;22;44890;-93
2023/05/22 10:36:10;;;;;;;;;5.00;5.00;;;;;29.20;47.63;17347.22;6358790;22;45073;-93
2023/05/22 10:39:09;;;;;;;;;6.00;4.00;;;;;29.09;46.66;23982.47;6357526;22;46897;-92
2023/05/22 10:41:40;;;;;;;;;7.00;5.00;;;;;29.33;46.48;24868.41;6256586;22;44918;-92
2023/05/22 10:44:09;;;;;;;;;4.33;4.00;;;;;29.04;46.92;25326.75;6232971;22;44997;-87
2023/05/22 10:46:48;;;;;;;;;5.00;5.00;;;;;29.52;46.69;26203.22;6258732;22;45185;-90
2023/05/22 10:49:48;;;;;;;;;5.00;5.00;;;;;30.07;46.12;28291.16;6257476;22;45280;-93
2023/05/22 10:52:17;;;;;;;;;5.00;5.00;;;;;29.39;45.78;30846.13;6195018;23;44877;-90
2023/05/22 10:55:03;;;;;;;;;5.00;4.00;;;;;29.54;45.33;33770.47;6196390;23;45256;-93
2023/05/22 10:57:33;;;;;;;;;4.33;4.33;;;;;30.12;45.50;34548.22;6172138;23;44985;-89
2023/05/22 11:00:29;;;;;;;;;5.67;5.00;;;;;30.73;44.54;37241.09;6196464;23;47525;-88
2023/05/22 11:03:41;;;;;;;;;6.00;5.00;;;;;30.83;43.96;39179.28;6106708;23;44935;-87
2023/05/22 11:06:47;;;;;;;;;5.67;4.33;;;;;30.94;44.36;40441.81;6106778;23;45041;-88
2023/05/22 11:10:02;;;;;;;;;7.00;6.00;;;;;30.98;43.58;42796.41;6107417;23;44903;-89
2023/05/22 11:12:29;;;;;;;;;5.00;5.00;;;;;30.74;44.16;43776.97;6107052;23;45213;-88
2023/05/22 11:14:55;;;;;;;;;5.67;5.33;;;;;30.99;43.46;46204.31;6107128;23;45037;-93
2023/05/22 11:17:30;;;;;;;;;3.67;3.67;;;;;30.12;43.66;47141.97;6110962;23;44919;-89
2023/05/22 11:20:11;;;;;;;;;4.33;3.67;;;;;30.20;43.25;49354.84;6137900;23;44943;-90
2023/05/22 11:22:41;;;;;;;;;5.00;5.00;;;;;30.77;43.53;49579.16;6136275;23;47217;-89
2023/05/22 11:25:15;;;;;;;;;4.67;4.67;;;;;30.32;43.91;49698.72;6136886;23;44799;-88
2023/05/22 11:27:41;;;;;;;;;4.33;3.33;;;;;29.88;43.82;50408.22;6137155;23;44834;-91
2023/05/22 11:30:08;;;;;;;;;9.00;8.33;;;;;29.90;43.63;50965.94;6227253;22;44847;-90
2023/05/22 11:32:45;;;;;;;;;4.00;3.33;;;;;30.07;43.68;51391.00;6227271;22;46916;-88
2023/05/22 11:35:14;;;;;;;;;5.33;5.33;;;;;29.81;43.89;51770.00;6227822;22;44883;-92
2023/05/22 11:37:52;;;;;;;;;6.00;4.00;;;;;30.26;43.61;52344.72;6227190;22;44907;-90
2023/05/22 11:40:31;;;;;;;;;6.00;5.00;;;;;29.64;43.94;52816.38;6373098;22;45051;-90
2023/05/22 11:42:57;;;;;;;;;7.00;6.00;;;;;29.97;44.10;52696.34;6385189;22;45334;-92
2023/05/22 11:45:39;;;;;;;;;5.67;4.33;;;;;30.03;43.13;54157.44;6385664;22;44815;-92
2023/05/22 11:48:07;;;;;;;;;5.00;3.33;;;;;29.53;43.34;55021.59;6385905;22;45090;-92
2023/05/22 11:50:33;;;;;;;;;9.00;7.00;;;;;29.03;43.34;55879.09;6386169;22;45240;-92
2023/05/22 11:52:58;;;;;;;;;4.00;4.00;;;;;29.54;43.20;56187.69;6386096;22;45085;-92
2023/05/22 11:55:23;;;;;;;;;5.33;5.33;;;;;28.70;43.40;56699.03;6359071;22;45054;-91
2023/05/22 11:57:49;;;;;;;;;7.00;7.00;;;;;29.11;43.66;57118.88;6386961;22;44967;-90
2023/05/22 12:00:15;;;;;;;;;6.00;6.00;;;;;29.15;43.77;57358.53;6387172;22;44889;-90
2023/05/22 12:02:45;;;;;;;;;5.00;5.00;;;;;28.81;44.01;56856.34;6386664;22;45268;-91
2023/05/22 12:05:10;;;;;;;;;5.00;5.00;;;;;28.82;44.42;56423.16;6386170;22;44820;-91
2023/05/22 12:07:36;;;;;;;;;4.00;4.00;;;;;28.61;44.33;56750.88;6386999;22;44970;-88
2023/05/22 12:10:04;;;;;;;;;4.00;4.00;;;;;28.85;44.11;57272.34;6387362;22;45001;-89
2023/05/22 12:12:29;;;;;;;;;5.33;5.00;;;;;28.57;44.12;57514.72;6386985;22;45985;-91
2023/05/22 12:14:56;;;;;;;;;4.33;4.33;;;;;28.53;44.24;57849.88;6358384;22;50620;-90
2023/05/22 12:17:21;;;;;;;;;4.33;4.33;;;;;28.36;44.23;58280.97;6386949;22;44957;-89
2023/05/22 12:19:47;;;;;;;;;5.00;5.00;;;;;28.11;44.07;58367.00;6358821;22;45058;-91
2023/05/22 12:22:13;;;;;;;;;7.00;4.50;;;;;27.73;44.68;58370.38;6358722;22;46575;-89
2023/05/22 12:24:45;;;;;;;;;4.67;4.67;;;;;27.82;44.48;58338.78;6386638;22;44819;-89
2023/05/22 12:27:11;;;;;;;;;5.00;5.00;;;;;27.66;44.62;58417.50;6386758;22;44885;-90
2023/05/22 12:29:41;;;;;;;;;7.33;6.33;;;;;27.44;45.04;58306.41;6386851;22;44815;-92
2023/05/22 12:32:11;;;;;;;;;5.00;5.00;;;;;27.20;45.10;58118.09;6386720;22;46123;-90
2023/05/22 12:34:46;;;;;;;;;4.33;4.33;;;;;27.05;45.53;57807.97;6386311;22;44933;-90
2023/05/22 12:37:26;;;;;;;;;9.33;5.33;;;;;26.97;45.25;57802.66;6387176;22;44858;-91
2023/05/22 12:40:00;;;;;;;;;7.00;5.67;;;;;27.18;45.54;57986.09;6387350;22;45077;-91
2023/05/22 12:42:26;;;;;;;;;6.33;5.00;;;;;27.13;45.47;57951.78;6386349;22;45632;-91
2023/05/22 12:44:53;;;;;;;;;5.00;5.00;;;;;27.01;45.17;57806.66;6386677;22;44891;-90
2023/05/22 12:47:19;;;;;;;;;5.33;5.33;;;;;27.03;45.51;57660.28;6386997;22;44838;-90
2023/05/22 12:49:44;;;;;;;;;5.67;5.67;;;;;26.79;45.52;57385.25;6386546;22;44804;-94
2023/05/22 12:52:12;;;;;;;;;4.33;4.33;;;;;27.01;45.82;57144.06;6386986;22;46476;-92
2023/05/22 12:54:37;;;;;;;;;7.33;6.00;;;;;26.65;46.25;57017.53;6386562;22;45028;-91
2023/05/22 12:57:03;;;;;;;;;5.33;5.33;;;;;26.79;45.87;56989.78;6386638;22;44851;-92
2023/05/22 12:59:29;;;;;;;;;6.33;6.33;;;;;26.53;45.98;56857.44;6386907;22;45010;-93
2023/05/22 13:02:00;;;;;;;;;5.67;5.67;;;;;26.79;46.22;56781.97;6386165;22;46079;-91
2023/05/22 13:04:29;;;;;;;;;6.00;6.00;;;;;26.79;46.45;56678.69;6386036;22;44918;-93
2023/05/22 13:06:55;;;;;;;;;5.67;5.67;;;;;26.54;46.51;56606.47;6386825;22;44882;-92
2023/05/22 13:09:20;;;;;;;;;7.67;5.33;;;;;26.65;46.16;56506.38;6386825;22;45003;-91
2023/05/22 13:11:47;;;;;;;;;5.00;5.00;;;;;26.41;46.23;56405.00;6386256;22;45995;-93
2023/05/22 13:14:13;;;;;;;;;4.33;4.33;;;;;26.58;46.48;56315.69;6358820;22;45132;-91
2023/05/22 13:16:42;;;;;;;;;6.67;6.00;;;;;26.51;46.90;55927.66;6358264;22;44886;-90
2023/05/22 13:19:07;;;;;;;;;5.33;5.33;;;;;25.95;46.47;55710.13;6384613;22;45039;-90
2023/05/22 13:21:35;;;;;;;;;7.00;6.00;;;;;26.49;46.82;55604.06;6385408;22;45363;-88
2023/05/22 13:24:03;;;;;;;;;4.33;4.33;;;;;26.40;46.84;55568.81;6386502;22;44839;-89
2023/05/22 13:26:29;;;;;;;;;6.67;4.33;;;;;26.39;46.82;55578.22;6386314;22;44949;-88
2023/05/22 13:28:54;;;;;;;;;6.67;5.33;;;;;26.18;46.87;55690.84;6386638;22;45133;-87
2023/05/22 13:31:20;;;;;;;;;5.00;5.00;;;;;26.35;47.00;55595.97;6386356;22;45390;-88
2023/05/22 13:33:54;;;;;;;;;4.00;4.00;;;;;26.17;47.19;55357.59;6385844;22;44929;-87
2023/05/22 13:36:20;;;;;;;;;4.33;4.33;;;;;26.29;47.15;54907.56;6386682;22;44883;-88
2023/05/22 13:38:45;;;;;;;;;5.00;4.67;;;;;26.28;47.21;54485.19;6358935;22;44936;-87
2023/05/22 13:41:10;;;;;;;;;8.33;7.00;;;;;26.42;47.23;54459.66;6385848;22;45181;-89
2023/05/22 13:43:38;;;;;;;;;6.00;6.00;;;;;25.97;47.11;54170.19;6385007;22;44867;-85
2023/05/22 13:46:28;;;;;;;;;6.67;6.67;;;;;26.15;46.94;54027.28;6385754;22;45203;-87
2023/05/22 13:52:16;;;;;;;;;4.00;4.00;;;;;25.37;47.27;53818.47;6386055;22;44859;-86
2023/05/22 13:54:41;;;;;;;;;4.00;4.00;;;;;26.18;47.38;53705.59;6366213;22;45377;-89
2023/05/22 13:57:07;;;;;;;;;4.67;4.67;;;;;26.07;47.39;53582.41;6339800;22;45296;-88
2023/05/22 13:59:32;;;;;;;;;5.33;5.33;;;;;26.21;47.44;53484.72;6368328;22;45277;-90
2023/05/22 14:01:57;;;;;;;;;4.00;4.00;;;;;26.03;47.69;53271.41;6368830;22;45982;-93
2023/05/22 14:04:23;;;;;;;;;4.67;4.67;;;;;25.92;48.05;53104.22;6372668;22;45735;-94
2023/05/22 14:06:48;;;;;;;;;5.67;5.00;;;;;25.71;47.42;53072.28;6372487;22;45277;-93
2023/05/22 14:09:14;;;;;;;;;6.00;4.00;;;;;26.04;47.80;53215.19;6371155;22;45302;-94
2023/05/22 14:11:39;;;;;;;;;8.00;6.00;;;;;25.55;48.10;52936.13;6342856;22;46746;-94
2023/05/22 14:14:05;;;;;;;;;7.00;5.00;;;;;25.92;47.81;52729.56;6341197;22;45678;-92
2023/05/22 14:16:33;;;;;;;;;4.00;4.00;;;;;25.38;48.27;52349.34;6370552;22;45195;-93
2023/05/22 14:18:59;;;;;;;;;6.00;6.00;;;;;25.56;48.52;52127.97;6370941;22;45625;-92
2023/05/22 14:21:25;;;;;;;;;4.67;4.67;;;;;25.80;48.41;51973.94;6342149;22;47078;-94
2023/05/22 14:23:50;;;;;;;;;5.33;3.67;;;;;25.68;48.57;51879.94;6342534;22;45672;-92
2023/05/22 14:26:16;;;;;;;;;6.00;5.00;;;;;25.66;49.01;51665.09;6370504;22;45296;-92
2023/05/22 14:28:41;;;;;;;;;6.33;6.33;;;;;25.54;48.53;51668.22;6343777;22;45288;-93
2023/05/22 14:31:06;;;;;;;;;4.00;4.00;;;;;25.24;48.54;51402.31;6368298;22;46313;-93
2023/05/22 14:33:32;;;;;;;;;5.33;5.33;;;;;25.59;48.23;51532.06;6340241;22;45304;-92
2023/05/22 14:35:57;;;;;;;;;4.33;4.33;;;;;25.65;48.74;51243.53;6341981;22;45702;-93
2023/05/22 14:38:22;;;;;;;;;5.33;5.33;;;;;25.64;48.54;50714.63;6341196;22;45312;-93
2023/05/22 14:40:48;;;;;;;;;3.00;3.00;;;;;25.49;48.74;50644.78;6341564;22;47205;-94
2023/05/22 14:43:14;;;;;;;;;6.00;6.00;;;;;25.53;48.93;50262.88;6369338;22;45447;-93
2023/05/22 14:45:39;;;;;;;;;4.00;4.00;;;;;25.51;49.03;50002.38;6342811;22;45638;-94
2023/05/22 14:48:04;;;;;;;;;6.67;5.33;;;;;24.95;48.68;49863.31;6341661;22;45795;-92
2023/05/22 14:50:30;;;;;;;;;5.67;4.00;;;;;24.23;49.21;49692.16;6339991;22;48074;-93
2023/05/22 14:52:55;;;;;;;;;7.00;5.33;;;;;24.73;49.18;49755.34;6368243;22;45306;-93
2023/05/22 14:55:21;;;;;;;;;7.00;7.00;;;;;24.57;48.81;49607.34;6341038;22;45445;-92
2023/05/22 14:57:46;;;;;;;;;8.00;8.00;;;;;24.54;49.12;49354.53;6345463;22;45417;-94
2023/05/22 15:00:13;;;;;;;;;7.33;6.00;;;;;24.99;49.03;49381.72;6344426;22;47960;-96
2023/05/22 15:02:38;;;;;;;;;5.00;4.00;;;;;24.52;49.10;48947.03;6347285;22;45748;-95
2023/05/22 15:05:05;;;;;;;;;5.00;5.00;;;;;24.58;49.01;48669.69;6344568;22;45346;-96
2023/05/22 15:07:34;;;;;;;;;4.33;4.33;;;;;24.09;49.10;48655.72;6354170;22;45476;-96
2023/05/22 15:10:00;;;;;;;;;5.33;5.33;;;;;24.10;49.68;48076.00;6355430;22;48367;-96
2023/05/22 15:12:25;;;;;;;;;5.33;5.00;;;;;24.69;49.06;48385.34;6354811;22;45268;-95
2023/05/22 15:14:52;;;;;;;;;5.00;5.00;;;;;25.32;49.14;48270.44;6351235;22;45386;-96
2023/05/22 15:17:17;;;;;;;;;5.00;5.00;;;;;25.21;49.07;48159.28;6351697;22;45560;-93
2023/05/22 15:19:44;;;;;;;;;4.33;4.33;;;;;24.82;49.39;48046.13;6350368;22;46831;-95
2023/05/22 15:22:09;;;;;;;;;5.33;5.33;;;;;25.49;49.24;48201.28;6378854;22;45276;-96
2023/05/22 15:24:35;;;;;;;;;6.67;5.33;;;;;24.73;49.47;48178.47;6347282;22;45364;-96
2023/05/22 15:27:00;;;;;;;;;6.00;6.00;;;;;24.13;49.37;48403.34;6345194;22;45175;-95
2023/05/22 15:29:27;;;;;;;;;5.67;4.00;;;;;24.93;49.70;48071.50;6343314;22;47409;-94
2023/05/22 15:31:53;;;;;;;;;6.00;6.00;;;;;24.19;49.65;48153.47;6342894;22;45787;-96
2023/05/22 15:34:18;;;;;;;;;4.67;4.67;;;;;24.81;49.64;48107.59;6345138;22;45161;-96
2023/05/22 15:36:44;;;;;;;;;4.00;4.00;;;;;24.32;49.56;48317.25;6345765;22;45235;-96
2023/05/22 15:39:09;;;;;;;;;5.00;5.00;;;;;24.78;49.30;48476.38;6343751;22;47244;-95
2023/05/22 15:41:34;;;;;;;;;5.33;5.33;;;;;24.30;48.93;48436.53;6341916;22;45436;-93
2023/05/22 15:44:00;;;;;;;;;3.33;3.33;;;;;25.15;49.45;48447.66;6343883;22;45526;-96
2023/05/22 15:46:25;;;;;;;;;4.67;4.67;;;;;24.32;49.78;48384.47;6344109;22;45165;-95
2023/05/22 15:48:51;;;;;;;;;3.33;3.33;;;;;23.71;49.77;48040.91;6347560;22;46787;-96
2023/05/22 15:51:16;;;;;;;;;8.00;6.00;;;;;24.55;49.79;47774.16;6356992;22;45402;-95
2023/05/22 15:53:41;;;;;;;;;5.00;5.00;;;;;23.53;49.80;47679.81;6356028;22;45405;-93
2023/05/22 15:56:07;;;;;;;;;3.00;3.00;;;;;23.72;49.37;47171.59;6353677;22;45427;-95
2023/05/22 15:58:32;;;;;;;;;3.67;3.67;;;;;24.72;49.54;47204.25;6344754;22;48076;-95
2023/05/22 16:00:58;;;;;;;;;5.67;5.67;;;;;23.45;50.14;47042.72;6372706;22;45389;-96
2023/05/22 16:03:24;;;;;;;;;5.33;5.33;;;;;23.55;50.12;47104.66;6355198;22;45266;-95
2023/05/22 16:05:49;;;;;;;;;5.00;5.00;;;;;23.55;49.98;46983.44;6346430;22;45496;-95
2023/05/22 16:08:15;;;;;;;;;6.00;5.00;;;;;24.14;49.95;47130.66;6343930;22;47864;-94
2023/05/22 16:10:43;;;;;;;;;3.67;3.67;;;;;23.63;49.81;47037.97;6343829;22;46193;-95
2023/05/22 16:13:11;;;;;;;;;5.67;5.00;;;;;24.76;50.21;47126.44;6370086;22;45205;-95
2023/05/22 16:15:38;;;;;;;;;6.00;6.00;;;;;24.82;50.23;47142.16;6343865;22;45321;-94
2023/05/22 16:18:05;;;;;;;;;2.33;2.33;;;;;24.77;50.16;47103.47;6343246;22;47246;-95
2023/05/22 16:20:30;;;;;;;;;4.33;4.33;;;;;24.19;50.03;47064.50;6342585;22;45384;-95
2023/05/22 16:22:55;;;;;;;;;5.00;5.00;;;;;23.30;49.54;47130.06;6342733;22;45227;-94
2023/05/22 16:25:21;;;;;;;;;5.33;5.00;;;;;23.18;50.39;46956.50;6343419;22;45362;-95
2023/05/22 16:27:46;;;;;;;;;6.00;6.00;;;;;23.75;50.55;46489.72;6346983;22;48113;-95
2023/05/22 16:30:16;;;;;;;;;6.00;5.67;;;;;24.16;50.31;46680.88;6346318;22;45220;-95
2023/05/22 16:32:44;;;;;;;;;5.00;5.00;;;;;23.13;50.38;46295.56;6344836;22;45890;-94
2023/05/22 16:35:10;;;;;;;;;5.33;5.33;;;;;23.09;50.18;46590.03;6347354;22;45357;-95
2023/05/22 16:37:35;;;;;;;;;4.33;4.33;;;;;23.03;50.02;46461.34;6347442;22;47408;-95
2023/05/22 16:40:01;;;;;;;;;5.33;5.00;;;;;23.02;50.33;46299.63;6352679;22;45618;-96
2023/05/22 16:42:36;;;;;;;;;8.00;6.33;;;;;22.93;50.70;46349.00;6355734;22;45291;-96
2023/05/22 16:45:03;;;;;;;;;3.00;2.50;;;;;22.80;50.37;46038.56;6364210;22;44805;-96